»·PEaware :: SWA1982 KPHX-KLAX

SWA1982 :: KPHX-KLAX

FLIGHT INFORMATION

Flight Status: Arrived
Operator:
Southwest Airlines
More flights by this operator :: More flights under this callsign
Pilot: Anonymous 14085 (14085)
Aircraft: BOEING 737-300
(B733)
More flights by this aircraft type
Origin: KPHX Phoenix Sky Harbor Intl
United States
Destination: KLAX Los Angeles Intl
United States
More flights between these airports :: More routes between these airports
Route: +IZZZO6 MESSI ESTWD HLYWD1
File this flight plan on PilotEdge
Remarks: PBN / A1B3B4B5D3D4 DOF / 170531 REG / N372SB EET / KZLA0018 OPR / SWA RMK / TCAS SIMBRIEF
Altitude:
(Current/Filed)
34,000ft
Speed:
(Current/Filed)
428kts
Departed: 30-May-17 06:12 PM
Arrived: 30-May-17 07:15 PM
Distance/Time
Traveled:
321nm/1:03
Distance/Time
To Go:
Arrived

Flight Plot

Page will automatically refresh every two minutes.

Flight plan parsing failed; only flown route is shown


Map Options




Map Legend


Flown Route
Filed Route
Departure Airport
Arrival Airport
Navaid (VOR, NDB)
Fix

Horizontal Profiles

Position Reports

Time Latitude Longitude Heading Altitude Ground
Speed
30-May-17 17:48 33.438263 -111.994561 180 1116ft 0kts
30-May-17 17:49 33.438263 -111.994561 180 1116ft 0kts
30-May-17 17:50 33.438263 -111.994561 180 1116ft 0kts
30-May-17 17:51 33.438263 -111.994561 180 1116ft 0kts
30-May-17 17:52 33.438263 -111.994561 180 1116ft 0kts
30-May-17 17:53 33.438263 -111.994561 180 1116ft 0kts
30-May-17 17:54 33.438263 -111.994561 180 1116ft 0kts
30-May-17 17:55 33.438263 -111.994561 180 1116ft 0kts
30-May-17 17:56 33.438263 -111.994561 180 1116ft 0kts
30-May-17 17:57 33.438263 -111.994561 180 1116ft 0kts
30-May-17 17:58 33.438263 -111.994561 180 1116ft 0kts
30-May-17 17:59 33.438263 -111.994561 180 1116ft 0kts
30-May-17 18:00 33.438263 -111.994561 180 1116ft 0kts
30-May-17 18:01 33.438263 -111.994561 180 1116ft 0kts
30-May-17 18:02 33.438263 -111.994561 180 1116ft 0kts
30-May-17 18:03 33.438263 -111.994561 180 1116ft 0kts
30-May-17 18:04 33.438393 -111.994561 180 1116ft 0kts
30-May-17 18:05 33.438708 -111.994561 179 1116ft 0kts
30-May-17 18:06 33.438708 -111.994561 179 1116ft 0kts
30-May-17 18:07 33.438765 -111.993733 74 1116ft 8kts
30-May-17 18:08 33.439709 -111.992262 359 1116ft 0kts
30-May-17 18:09 33.439709 -111.992262 359 1116ft 0kts
30-May-17 18:10 33.439709 -111.992262 359 1116ft 0kts
30-May-17 18:11 33.439709 -111.992262 359 1116ft 0kts
30-May-17 18:12 33.439715 -111.992262 359 1116ft 0kts
30-May-17 18:13 33.440079 -111.992263 0 1116ft 4kts
30-May-17 18:14 33.440844 -112.000569 270 1116ft 110kts
30-May-17 18:15 33.435635 -112.056348 257 2959ft 192kts
30-May-17 18:16 33.435102 -112.059189 259 3071ft 193kts
30-May-17 18:17 33.434671 -112.061922 261 3182ft 193kts
30-May-17 18:18 33.434332 -112.064580 263 3291ft 194kts
30-May-17 18:19 33.434076 -112.067159 265 3400ft 194kts
30-May-17 18:20 33.433968 -112.068578 266 3460ft 194kts
30-May-17 18:21 33.433946 -112.068908 266 3474ft 194kts
30-May-17 18:22 33.433853 -112.070619 267 3548ft 194kts
30-May-17 18:23 33.434843 -112.101328 272 4516ft 214kts
30-May-17 18:24 33.436990 -112.166453 272 7045ft 274kts
30-May-17 18:25 33.440053 -112.260597 272 10795ft 312kts
30-May-17 18:26 33.443748 -112.377391 272 13854ft 368kts
30-May-17 18:27 33.447600 -112.502745 272 17480ft 389kts
30-May-17 18:28 33.450646 -112.610594 271 20203ft 405kts
30-May-17 18:29 33.451890 -112.711404 270 22435ft 419kts
30-May-17 18:30 33.456285 -112.831400 287 25568ft 416kts
30-May-17 18:31 33.509586 -112.962673 293 27310ft 451kts
30-May-17 18:32 33.558027 -113.100406 292 30288ft 445kts
30-May-17 18:33 33.605244 -113.235988 292 32972ft 441kts
30-May-17 18:34 33.652208 -113.371418 292 34024ft 442kts
30-May-17 18:35 33.698900 -113.506623 292 33999ft 440kts
30-May-17 18:36 33.745501 -113.642121 292 34002ft 440kts
30-May-17 18:37 33.788900 -113.769116 292 34003ft 441kts
30-May-17 18:38 33.833641 -113.902563 292 34003ft 452kts
30-May-17 18:39 33.881155 -114.042369 292 34001ft 451kts
30-May-17 18:40 33.918129 -114.186469 280 34026ft 462kts
30-May-17 18:41 33.943285 -114.337926 281 34266ft 463kts
30-May-17 18:42 33.968731 -114.488506 281 34594ft 462kts
30-May-17 18:43 33.994155 -114.640169 281 34996ft 462kts
30-May-17 18:44 34.018441 -114.786395 281 34873ft 460kts
30-May-17 18:45 34.043192 -114.936356 281 34218ft 456kts
30-May-17 18:46 34.066958 -115.084506 280 34002ft 452kts
30-May-17 18:47 34.090967 -115.232900 281 34001ft 451kts
30-May-17 18:48 34.113191 -115.369070 281 34002ft 451kts
30-May-17 18:49 34.136123 -115.511656 281 34001ft 451kts
30-May-17 18:50 34.159601 -115.659166 280 33989ft 452kts
30-May-17 18:51 34.155011 -115.788463 262 33994ft 452kts
30-May-17 18:52 34.139742 -115.941200 263 34009ft 462kts
30-May-17 18:53 34.124954 -116.091537 263 33999ft 451kts
30-May-17 18:54 34.110199 -116.241508 263 33623ft 449kts
30-May-17 18:55 34.094854 -116.388512 262 31657ft 416kts
30-May-17 18:56 34.080219 -116.525379 262 30500ft 443kts
30-May-17 18:57 34.066001 -116.667406 263 28502ft 427kts
30-May-17 18:58 34.054171 -116.795277 263 26654ft 414kts
30-May-17 18:59 34.035047 -116.910732 235 24585ft 404kts
30-May-17 19:00 33.979415 -117.014625 276 22222ft 390kts
30-May-17 19:01 34.008917 -117.122159 273 20099ft 379kts
30-May-17 19:02 34.004331 -117.197591 250 18656ft 374kts
30-May-17 19:03 33.990017 -117.305423 263 16532ft 366kts
30-May-17 19:04 33.978642 -117.423849 263 14517ft 345kts
30-May-17 19:05 33.979613 -117.529062 282 13071ft 322kts
30-May-17 19:06 33.997956 -117.631152 282 11578ft 306kts
30-May-17 19:07 34.007149 -117.721459 267 10197ft 296kts
30-May-17 19:08 33.996113 -117.817246 259 8703ft 289kts
30-May-17 19:09 33.984398 -117.912807 263 7142ft 287kts
30-May-17 19:10 33.976084 -118.002554 263 6517ft 256kts
30-May-17 19:11 33.967510 -118.087579 263 5069ft 263kts
30-May-17 19:12 33.958907 -118.172273 263 3605ft 236kts
30-May-17 19:13 33.951860 -118.241670 263 2474ft 182kts
30-May-17 19:14 33.947154 -118.287700 263 1690ft 162kts
30-May-17 19:15 33.940867 -118.349677 263 674ft 158kts
30-May-17 19:16 33.935620 -118.399342 263 110ft 103kts
30-May-17 19:17 33.935798 -118.405922 294 110ft 1kts
30-May-17 19:18 33.936749 -118.408959 350 110ft 17kts
30-May-17 19:19 33.939786 -118.411723 354 110ft 20kts
30-May-17 19:20 33.944871 -118.412496 349 110ft 23kts
30-May-17 19:21 33.947620 -118.407904 83 110ft 21kts
30-May-17 19:22 33.948360 -118.401152 118 110ft 4kts
30-May-17 19:23 33.947860 -118.401108 183 110ft 0kts

Navigation Log

Ident Type
Flight plan parsing failed, navigation log unavailable